createdAt,value
2022-11-19T00:00:54.774Z,72.40
2022-11-19T00:01:55.945Z,72.40
2022-11-19T00:02:56.031Z,72.30
2022-11-19T00:03:56.606Z,72.10
2022-11-19T00:04:57.219Z,71.90
2022-11-19T00:05:57.793Z,71.80
2022-11-19T00:06:58.591Z,71.80
2022-11-19T00:07:59.223Z,71.70
2022-11-19T00:08:59.803Z,71.80
2022-11-19T00:10:00.380Z,71.60
2022-11-19T00:11:03.200Z,71.80
2022-11-19T00:12:01.985Z,71.90
2022-11-19T00:13:02.571Z,71.80
2022-11-19T00:14:03.137Z,72.00
2022-11-19T00:15:03.705Z,72.10
2022-11-19T00:16:04.276Z,72.10
2022-11-19T00:17:04.887Z,72.20
2022-11-19T00:18:05.464Z,72.20
2022-11-19T00:19:06.047Z,72.20
2022-11-19T00:20:06.652Z,72.20
2022-11-19T00:21:07.223Z,72.20
2022-11-19T00:22:07.935Z,72.10
2022-11-19T00:23:08.518Z,72.00
2022-11-19T00:24:09.095Z,72.10
2022-11-19T00:25:09.672Z,72.10
2022-11-19T00:26:10.264Z,71.80
2022-11-19T00:27:11.017Z,71.70
2022-11-19T00:28:11.595Z,71.63
2022-11-19T00:29:16.720Z,71.73
2022-11-19T00:30:32.743Z,71.73
2022-11-19T00:31:13.991Z,71.73
2022-11-19T00:32:14.648Z,71.83
2022-11-19T00:33:15.219Z,71.83
2022-11-19T00:34:15.807Z,71.94
2022-11-19T00:35:16.419Z,72.03
2022-11-19T00:36:16.989Z,72.24
2022-11-19T00:37:17.594Z,72.24
2022-11-19T00:38:18.185Z,72.24
2022-11-19T00:39:19.172Z,72.27
2022-11-19T00:40:19.641Z,72.27
2022-11-19T00:41:20.228Z,72.37
2022-11-19T00:42:20.925Z,72.47
2022-11-19T00:43:21.493Z,72.57
2022-11-19T00:44:22.066Z,72.57
2022-11-19T00:45:22.651Z,72.57
2022-11-19T00:46:23.225Z,72.57
2022-11-19T00:47:23.822Z,72.57
2022-11-19T00:48:24.384Z,72.67
2022-11-19T00:49:25.069Z,72.87
2022-11-19T00:50:25.674Z,72.87
2022-11-19T00:51:26.240Z,72.77
2022-11-19T00:52:27.072Z,72.97
2022-11-19T00:53:27.647Z,72.97
2022-11-19T00:54:28.234Z,73.00
2022-11-19T00:55:28.802Z,73.27
2022-11-19T00:56:29.362Z,73.51
2022-11-19T00:57:29.988Z,73.58
2022-11-19T00:58:30.554Z,73.41
2022-11-19T00:59:31.127Z,73.41
2022-11-19T01:00:31.695Z,73.61
2022-11-19T01:01:32.317Z,73.81
2022-11-19T01:02:33.044Z,73.81
2022-11-19T01:03:33.619Z,73.81
2022-11-19T01:04:34.197Z,73.81
2022-11-19T01:05:34.794Z,73.91
2022-11-19T01:06:35.356Z,74.11
2022-11-19T01:07:36.039Z,74.11
2022-11-19T01:08:36.648Z,74.21
2022-11-19T01:09:37.224Z,74.21
2022-11-19T01:10:37.789Z,74.21
2022-11-19T01:11:38.359Z,74.21
2022-11-19T01:12:38.965Z,74.21
2022-11-19T01:13:39.542Z,74.21
2022-11-19T01:14:40.121Z,74.11
2022-11-19T01:15:40.715Z,74.21
2022-11-19T01:16:41.293Z,74.21
2022-11-19T01:17:42.088Z,74.11
2022-11-19T01:18:42.661Z,74.21
2022-11-19T01:19:43.232Z,74.32
2022-11-19T01:20:43.842Z,74.32
2022-11-19T01:21:44.455Z,74.41
2022-11-19T01:22:45.062Z,74.41
2022-11-19T01:23:45.648Z,74.55
2022-11-19T01:24:46.250Z,74.65
2022-11-19T01:25:46.838Z,74.85
2022-11-19T01:26:47.414Z,74.85
2022-11-19T01:27:48.043Z,74.95
2022-11-19T01:28:48.622Z,75.05
2022-11-19T01:29:49.199Z,75.05
2022-11-19T01:30:49.767Z,75.15
2022-11-19T01:31:50.328Z,75.26
2022-11-19T01:32:51.402Z,75.35
2022-11-19T01:33:51.505Z,75.46
2022-11-19T01:34:52.081Z,75.56
2022-11-19T01:35:52.678Z,75.46
2022-11-19T01:36:53.293Z,75.56
2022-11-19T01:37:53.956Z,75.70
2022-11-19T01:38:54.686Z,75.76
2022-11-19T01:39:55.291Z,75.96
2022-11-19T01:40:55.865Z,76.06
2022-11-19T01:41:56.458Z,76.06
2022-11-19T01:42:57.074Z,76.06
2022-11-19T01:43:57.657Z,76.06
2022-11-19T01:44:58.226Z,76.16
2022-11-19T01:45:58.805Z,76.26
2022-11-19T01:46:59.389Z,76.36
2022-11-19T01:47:59.999Z,76.46
2022-11-19T01:49:00.579Z,76.46
2022-11-19T01:50:01.167Z,76.36
2022-11-19T01:51:01.771Z,76.26
2022-11-19T01:52:02.361Z,76.36
2022-11-19T01:53:03.095Z,76.36
2022-11-19T01:54:03.677Z,76.40
2022-11-19T01:55:04.249Z,76.60
2022-11-19T01:56:04.818Z,76.70
2022-11-19T01:57:05.437Z,76.67
2022-11-19T01:58:06.070Z,76.60
2022-11-19T01:59:06.640Z,76.50
2022-11-19T02:00:07.214Z,76.40
2022-11-19T02:01:07.869Z,76.50
2022-11-19T02:02:08.466Z,76.70
2022-11-19T02:03:09.293Z,76.70
2022-11-19T02:04:09.878Z,76.70
2022-11-19T02:05:10.451Z,76.80
2022-11-19T02:06:11.074Z,76.80
2022-11-19T02:07:11.743Z,76.80
2022-11-19T02:08:12.412Z,76.80
2022-11-19T02:09:12.987Z,76.80
2022-11-19T02:10:13.568Z,76.80
2022-11-19T02:11:14.130Z,76.94
2022-11-19T02:12:14.725Z,76.94
2022-11-19T02:13:15.347Z,77.14
2022-11-19T02:14:15.939Z,77.14
2022-11-19T02:15:16.502Z,77.24
2022-11-19T02:16:17.114Z,77.24
2022-11-19T02:17:17.687Z,77.24
2022-11-19T02:18:18.364Z,77.34
2022-11-19T02:19:19.106Z,77.44
2022-11-19T02:20:19.810Z,77.44
2022-11-19T02:21:20.394Z,77.55
2022-11-19T02:22:20.960Z,77.75
2022-11-19T02:23:21.560Z,78.08
2022-11-19T02:24:22.132Z,78.59
2022-11-19T02:25:22.714Z,79.09
2022-11-19T02:26:23.285Z,79.39
2022-11-19T02:27:23.848Z,79.60
2022-11-19T02:28:24.486Z,79.80
2022-11-19T02:29:25.052Z,79.80
2022-11-19T02:30:25.622Z,79.90
2022-11-19T02:31:26.193Z,80.00
2022-11-19T02:32:26.782Z,80.00
2022-11-19T02:33:27.431Z,80.00
2022-11-19T02:34:28.003Z,79.90
2022-11-19T02:35:28.573Z,79.90
2022-11-19T02:36:29.162Z,79.80
2022-11-19T02:37:29.758Z,79.69
2022-11-19T02:38:30.386Z,79.60
2022-11-19T02:39:30.958Z,79.69
2022-11-19T02:40:31.522Z,79.69
2022-11-19T02:41:32.098Z,79.69
2022-11-19T02:42:32.676Z,79.80
2022-11-19T02:43:33.287Z,79.90
2022-11-19T02:44:33.865Z,80.00
2022-11-19T02:45:34.455Z,80.00
2022-11-19T02:46:35.030Z,80.00
2022-11-19T02:47:35.604Z,80.00
2022-11-19T02:48:36.189Z,80.00
2022-11-19T02:49:36.765Z,80.00
2022-11-19T02:50:37.343Z,79.90
2022-11-19T02:51:37.938Z,79.80
2022-11-19T02:52:38.512Z,79.80
2022-11-19T02:53:39.496Z,79.76
2022-11-19T02:54:40.064Z,79.96
2022-11-19T02:55:40.624Z,80.16
2022-11-19T02:56:41.213Z,80.36
2022-11-19T02:57:41.784Z,80.57
2022-11-19T02:58:42.412Z,80.57
2022-11-19T02:59:42.990Z,80.97
2022-11-19T03:00:43.594Z,81.13
2022-11-19T03:01:44.252Z,81.23
2022-11-19T03:02:44.869Z,81.23
2022-11-19T03:03:45.574Z,81.43
2022-11-19T03:04:46.154Z,81.43
2022-11-19T03:05:46.733Z,81.33
2022-11-19T03:06:47.340Z,81.13
2022-11-19T03:07:47.925Z,80.93
2022-11-19T03:08:48.555Z,81.03
2022-11-19T03:09:49.139Z,81.13
2022-11-19T03:10:49.771Z,81.19
2022-11-19T03:11:50.356Z,81.19
2022-11-19T03:12:50.946Z,81.29
2022-11-19T03:13:51.652Z,81.39
2022-11-19T03:14:52.233Z,81.59
2022-11-19T03:15:52.815Z,81.49
2022-11-19T03:16:53.389Z,81.39
2022-11-19T03:17:53.965Z,81.29
2022-11-19T03:18:54.649Z,81.29
2022-11-19T03:19:55.226Z,81.29
2022-11-19T03:20:55.804Z,81.19
2022-11-19T03:21:56.412Z,80.89
2022-11-19T03:22:56.998Z,80.79
2022-11-19T03:23:57.596Z,80.89
2022-11-19T03:24:58.206Z,80.89
2022-11-19T03:25:58.791Z,80.89
2022-11-19T03:26:59.376Z,80.89
2022-11-19T03:27:59.957Z,80.69
2022-11-19T03:29:00.613Z,80.39
2022-11-19T03:30:01.207Z,80.19
2022-11-19T03:31:01.826Z,80.08
2022-11-19T03:32:02.407Z,80.19
2022-11-19T03:33:03.008Z,80.29
2022-11-19T03:34:03.642Z,80.49
2022-11-19T03:35:04.247Z,80.58
2022-11-19T03:36:04.821Z,80.79
2022-11-19T03:37:05.429Z,80.79
2022-11-19T03:38:06.003Z,80.79
2022-11-19T03:39:06.609Z,80.39
2022-11-19T03:40:07.202Z,79.88
2022-11-19T03:41:07.777Z,79.88
2022-11-19T03:42:08.346Z,79.92
2022-11-19T03:43:08.977Z,79.72
2022-11-19T03:44:09.592Z,79.82
2022-11-19T03:45:10.169Z,79.82
2022-11-19T03:46:10.731Z,79.66
2022-11-19T03:47:11.307Z,79.76
2022-11-19T03:48:11.877Z,80.26
2022-11-19T03:49:12.474Z,80.66
2022-11-19T03:50:13.054Z,81.07
2022-11-19T03:51:13.687Z,81.37
2022-11-19T03:52:14.276Z,81.47
2022-11-19T03:53:14.847Z,81.67
2022-11-19T03:54:15.581Z,81.57
2022-11-19T03:55:16.163Z,81.57
2022-11-19T03:56:16.738Z,81.57
2022-11-19T03:57:17.322Z,81.57
2022-11-19T03:58:17.893Z,81.57
2022-11-19T03:59:18.786Z,81.33
2022-11-19T04:00:18.977Z,81.33
2022-11-19T04:01:19.599Z,81.13
2022-11-19T04:02:20.231Z,80.93
2022-11-19T04:03:20.814Z,80.73
2022-11-19T04:04:21.929Z,80.43
2022-11-19T04:05:22.004Z,80.12
2022-11-19T04:06:22.576Z,79.72
2022-11-19T04:07:23.456Z,79.52
2022-11-19T04:08:24.077Z,79.42
2022-11-19T04:09:24.697Z,78.91
2022-11-19T04:10:25.270Z,78.91
2022-11-19T04:12:26.404Z,79.22
2022-11-19T04:13:27.017Z,79.52
2022-11-19T04:14:27.611Z,79.52
2022-11-19T04:15:28.187Z,79.66
2022-11-19T04:16:28.785Z,79.86
2022-11-19T04:17:29.375Z,79.96
2022-11-19T04:18:29.963Z,80.16
2022-11-19T04:19:30.592Z,80.26
2022-11-19T04:20:31.202Z,80.36
2022-11-19T04:21:31.853Z,80.46
2022-11-19T04:22:32.470Z,80.36
2022-11-19T04:23:33.058Z,80.36
2022-11-19T04:24:36.205Z,80.50
2022-11-19T04:25:34.267Z,80.60
2022-11-19T04:26:34.834Z,80.70
2022-11-19T04:27:35.412Z,80.70
2022-11-19T04:28:35.997Z,80.80
2022-11-19T04:29:36.713Z,80.90
2022-11-19T04:30:37.278Z,81.01
2022-11-19T04:31:37.852Z,81.01
2022-11-19T04:32:38.421Z,80.90
2022-11-19T04:33:38.996Z,80.70
2022-11-19T04:34:39.612Z,80.70
2022-11-19T04:35:40.132Z,80.70
2022-11-19T04:36:40.715Z,80.60
2022-11-19T04:37:41.311Z,80.60
2022-11-19T04:38:41.851Z,80.50
2022-11-19T04:39:42.542Z,80.40
2022-11-19T04:40:43.087Z,80.64
2022-11-19T04:41:43.616Z,80.84
2022-11-19T04:42:44.135Z,81.04
2022-11-19T04:43:44.670Z,81.24
2022-11-19T04:44:45.217Z,81.45
2022-11-19T04:45:45.735Z,81.55
2022-11-19T04:46:46.246Z,81.55
2022-11-19T04:47:46.780Z,81.59
2022-11-19T04:48:47.323Z,81.59
2022-11-19T04:49:47.952Z,81.68
2022-11-19T04:50:48.582Z,81.89
2022-11-19T04:51:49.099Z,81.99
2022-11-19T04:52:49.644Z,81.99
2022-11-19T04:53:50.173Z,81.89
2022-11-19T04:54:50.797Z,81.93
2022-11-19T04:55:51.325Z,82.03
2022-11-19T04:56:51.848Z,82.33
2022-11-19T04:57:52.365Z,82.64
2022-11-19T04:58:52.898Z,82.93
2022-11-19T04:59:53.520Z,83.14
2022-11-19T05:00:54.037Z,83.44
2022-11-19T05:01:54.599Z,83.54
2022-11-19T05:02:55.248Z,83.64
2022-11-19T05:03:55.762Z,83.84
2022-11-19T05:04:56.424Z,84.05
2022-11-19T05:05:56.956Z,84.05
2022-11-19T05:06:57.497Z,84.01
2022-11-19T05:07:58.070Z,84.21
2022-11-19T05:08:58.593Z,84.31
2022-11-19T05:09:59.149Z,84.31
2022-11-19T05:10:59.662Z,84.37
2022-11-19T05:12:00.171Z,84.47
2022-11-19T05:13:00.691Z,84.47
2022-11-19T05:14:01.224Z,84.33
2022-11-19T05:15:01.772Z,84.13
2022-11-19T05:16:02.283Z,84.03
2022-11-19T05:17:02.806Z,83.79
2022-11-19T05:18:03.330Z,83.59
2022-11-19T05:19:03.845Z,83.39
2022-11-19T05:20:04.476Z,83.04
2022-11-19T05:21:05.000Z,82.64
2022-11-19T05:22:05.525Z,82.24
2022-11-19T05:23:06.069Z,81.84
2022-11-19T05:24:06.581Z,81.43
2022-11-19T05:25:07.141Z,80.83
2022-11-19T05:26:07.660Z,80.52
2022-11-19T05:27:08.191Z,80.46
2022-11-19T05:28:08.714Z,80.46
2022-11-19T05:29:09.237Z,80.46
2022-11-19T05:30:09.811Z,80.66
2022-11-19T05:31:10.335Z,80.77
2022-11-19T05:32:10.857Z,80.97
2022-11-19T05:33:11.409Z,81.07
2022-11-19T05:34:11.933Z,81.17
2022-11-19T05:35:12.584Z,81.03
2022-11-19T05:36:13.101Z,80.93
2022-11-19T05:37:13.614Z,80.83
2022-11-19T05:38:14.157Z,80.63
2022-11-19T05:39:20.405Z,80.43
2022-11-19T05:40:15.576Z,80.32
2022-11-19T05:41:16.095Z,80.32
2022-11-19T05:42:16.615Z,80.22
2022-11-19T05:43:17.129Z,80.02
2022-11-19T05:44:17.680Z,79.92
2022-11-19T05:45:18.290Z,79.82
2022-11-19T05:46:18.819Z,79.79
2022-11-19T05:47:19.344Z,79.68
2022-11-19T05:48:19.865Z,79.58
2022-11-19T05:49:20.777Z,79.58
2022-11-19T05:50:21.106Z,79.58
2022-11-19T05:51:21.629Z,79.68
2022-11-19T05:52:22.146Z,79.68
2022-11-19T05:53:22.690Z,79.79
2022-11-19T05:54:23.280Z,79.99
2022-11-19T05:55:23.874Z,79.88
2022-11-19T05:56:24.394Z,79.85
2022-11-19T05:57:24.934Z,79.64
2022-11-19T05:58:25.483Z,79.54
2022-11-19T05:59:26.014Z,79.54
2022-11-19T06:00:26.615Z,79.50
2022-11-19T06:01:27.151Z,79.61
2022-11-19T06:02:27.776Z,79.47
2022-11-19T06:03:28.323Z,79.17
2022-11-19T06:04:28.846Z,78.77
2022-11-19T06:05:29.505Z,78.22
2022-11-19T06:06:30.025Z,77.72
2022-11-19T06:07:30.573Z,77.28
2022-11-19T06:08:31.166Z,76.85
2022-11-19T06:09:31.694Z,76.45
2022-11-19T06:10:32.254Z,76.04
2022-11-19T06:11:32.776Z,75.51
2022-11-19T06:12:33.316Z,75.01
2022-11-19T06:13:33.846Z,74.47
2022-11-19T06:14:34.375Z,73.97
2022-11-19T06:15:34.932Z,73.43
2022-11-19T06:16:35.453Z,72.89
2022-11-19T06:17:36.307Z,72.50
2022-11-19T06:18:36.827Z,72.06
2022-11-19T06:19:37.364Z,71.46
2022-11-19T06:20:38.009Z,71.03
2022-11-19T06:21:38.530Z,70.06
2022-11-19T06:22:39.054Z,68.40
2022-11-19T06:23:39.619Z,65.77
2022-11-19T06:24:40.137Z,62.89
2022-11-19T06:25:40.709Z,60.42
2022-11-19T06:26:41.236Z,58.64
2022-11-19T06:27:41.765Z,56.97
2022-11-19T06:28:42.286Z,55.33
2022-11-19T06:29:42.812Z,53.99
2022-11-19T06:30:43.437Z,52.48
2022-11-19T06:31:43.954Z,51.25
2022-11-19T06:32:44.472Z,50.31
2022-11-19T06:33:45.005Z,49.50
2022-11-19T06:34:45.528Z,48.49
2022-11-19T06:35:46.119Z,47.66
2022-11-19T06:36:50.571Z,46.67
2022-11-19T06:37:47.458Z,46.37
2022-11-19T06:38:48.053Z,46.06
2022-11-19T06:39:48.566Z,45.54
2022-11-19T06:40:49.186Z,44.95
2022-11-19T06:41:49.704Z,44.54
2022-11-19T06:42:51.167Z,44.01
2022-11-19T06:43:50.830Z,43.00
2022-11-19T06:44:51.357Z,42.18
2022-11-19T06:45:51.946Z,41.68
2022-11-19T06:46:52.468Z,41.47
2022-11-19T06:47:52.993Z,41.27
2022-11-19T06:48:53.506Z,40.76
2022-11-19T06:49:54.074Z,40.56
2022-11-19T06:50:54.706Z,40.35
2022-11-19T06:51:55.235Z,39.96
2022-11-19T06:52:55.777Z,39.74
2022-11-19T06:53:56.337Z,39.54
2022-11-19T06:54:56.873Z,39.33
2022-11-19T06:55:57.437Z,39.33
2022-11-19T06:56:57.954Z,38.63
2022-11-19T06:57:58.469Z,38.32
2022-11-19T06:58:58.985Z,37.83
2022-11-19T06:59:59.508Z,36.94
2022-11-19T07:01:00.080Z,36.73
2022-11-19T07:02:00.639Z,36.23
2022-11-19T07:03:01.193Z,36.23
2022-11-19T07:04:01.735Z,36.11
2022-11-19T07:05:02.252Z,36.21
2022-11-19T07:06:02.901Z,35.63
2022-11-19T07:07:03.521Z,35.80
2022-11-19T07:08:04.092Z,35.71
2022-11-19T07:09:04.657Z,34.84
2022-11-19T07:10:05.176Z,35.14
2022-11-19T07:11:05.736Z,35.04
2022-11-19T07:12:06.257Z,34.86
2022-11-19T07:13:06.799Z,34.84
2022-11-19T07:14:07.328Z,35.04
2022-11-19T07:15:07.852Z,34.81
2022-11-19T07:16:08.411Z,33.92
2022-11-19T07:17:08.939Z,34.11
2022-11-19T07:18:09.485Z,33.70
2022-11-19T07:19:10.023Z,33.41
2022-11-19T07:20:10.544Z,32.53
2022-11-19T07:21:11.170Z,32.82
2022-11-19T07:22:11.705Z,32.42
2022-11-19T07:23:12.229Z,32.42
2022-11-19T07:24:12.763Z,32.21
2022-11-19T07:25:13.293Z,31.73
2022-11-19T07:26:13.866Z,31.51
2022-11-19T07:27:14.387Z,31.71
2022-11-19T07:28:14.906Z,31.51
2022-11-19T07:29:15.433Z,31.92
2022-11-19T07:30:15.955Z,31.45
2022-11-19T07:31:16.538Z,32.24
2022-11-19T07:32:17.072Z,32.45
2022-11-19T07:33:17.594Z,32.76
2022-11-19T07:34:18.129Z,33.36
2022-11-19T07:35:18.656Z,34.28
2022-11-19T07:36:19.209Z,33.90
2022-11-19T07:37:19.744Z,35.01
2022-11-19T07:38:20.265Z,35.71
2022-11-19T07:39:21.123Z,35.75
2022-11-19T07:40:21.452Z,36.76
2022-11-19T07:41:22.038Z,37.05
2022-11-19T07:42:22.605Z,37.07
2022-11-19T07:43:23.131Z,37.46
2022-11-19T07:44:23.661Z,38.07
2022-11-19T07:45:24.196Z,38.09
2022-11-19T07:46:24.795Z,38.42
2022-11-19T07:47:25.312Z,39.31
2022-11-19T07:48:25.861Z,39.62
2022-11-19T07:49:26.384Z,39.62
2022-11-19T07:50:27.032Z,40.01
2022-11-19T07:51:27.806Z,39.84
2022-11-19T07:52:28.331Z,40.64
2022-11-19T07:53:29.266Z,41.06
2022-11-19T07:54:29.823Z,41.59
2022-11-19T07:55:30.340Z,42.30
2022-11-19T07:56:30.896Z,42.93
2022-11-19T07:57:31.415Z,43.65
2022-11-19T07:58:31.938Z,44.04
2022-11-19T07:59:32.463Z,44.12
2022-11-19T08:00:32.984Z,44.42
2022-11-19T08:01:33.594Z,44.73
2022-11-19T08:02:34.159Z,45.03
2022-11-19T08:03:34.691Z,44.64
2022-11-19T08:04:35.211Z,44.73
2022-11-19T08:05:35.735Z,44.32
2022-11-19T08:06:36.381Z,43.92
2022-11-19T08:07:36.947Z,44.51
2022-11-19T08:08:37.510Z,44.51
2022-11-19T08:09:38.401Z,44.43
2022-11-19T08:10:38.934Z,44.73
2022-11-19T08:11:39.580Z,44.73
2022-11-19T08:12:40.104Z,44.24
2022-11-19T08:13:40.622Z,44.54
2022-11-19T08:14:41.147Z,44.64
2022-11-19T08:15:41.680Z,44.81
2022-11-19T08:16:42.237Z,44.51
2022-11-19T08:17:42.767Z,44.02
2022-11-19T08:18:43.300Z,43.60
2022-11-19T08:19:43.836Z,43.78
2022-11-19T08:20:44.346Z,43.48
2022-11-19T08:21:44.968Z,43.09
2022-11-19T08:22:45.502Z,43.09
2022-11-19T08:23:46.032Z,42.28
2022-11-19T08:24:46.670Z,42.47
2022-11-19T08:25:47.182Z,42.16
2022-11-19T08:26:47.752Z,41.86
2022-11-19T08:27:48.287Z,41.47
2022-11-19T08:28:48.813Z,40.86
2022-11-19T08:29:49.355Z,40.86
2022-11-19T08:30:49.884Z,41.04
2022-11-19T08:31:50.498Z,40.92
2022-11-19T08:32:51.009Z,40.53
2022-11-19T08:33:51.517Z,40.31
2022-11-19T08:34:52.042Z,40.19
2022-11-19T08:35:52.562Z,38.92
2022-11-19T08:36:53.129Z,38.60
2022-11-19T08:37:53.678Z,38.07
2022-11-19T08:38:54.207Z,37.84
2022-11-19T08:39:54.759Z,37.13
2022-11-19T08:40:55.287Z,36.53
2022-11-19T08:41:55.843Z,36.41
2022-11-19T08:42:56.353Z,36.00
2022-11-19T08:43:56.865Z,35.44
2022-11-19T08:44:57.381Z,36.00
2022-11-19T08:45:57.899Z,35.60
2022-11-19T08:46:58.924Z,34.80
2022-11-19T08:47:58.943Z,34.29
2022-11-19T08:48:59.762Z,34.29
2022-11-19T08:50:00.292Z,34.18
2022-11-19T08:51:00.815Z,34.29
2022-11-19T08:52:01.421Z,34.08
2022-11-19T08:53:01.951Z,33.56
2022-11-19T08:54:02.482Z,32.45
2022-11-19T08:55:03.041Z,32.05
2022-11-19T08:56:03.591Z,30.55
2022-11-19T08:57:04.467Z,30.17
2022-11-19T08:58:04.985Z,30.35
2022-11-19T08:59:05.512Z,30.04
2022-11-19T09:00:06.688Z,29.75
2022-11-19T09:01:06.863Z,29.94
2022-11-19T09:02:07.478Z,29.94
2022-11-19T09:03:08.002Z,29.85
2022-11-19T09:04:08.538Z,30.15
2022-11-19T09:05:13.357Z,29.75
2022-11-19T09:06:09.916Z,29.33
2022-11-19T09:07:10.718Z,28.54
2022-11-19T09:08:11.302Z,28.44
2022-11-19T09:09:11.842Z,28.14
2022-11-19T09:10:12.402Z,27.94
2022-11-19T09:11:12.944Z,28.25
2022-11-19T09:12:13.528Z,27.73
2022-11-19T09:13:14.057Z,27.46
2022-11-19T09:14:14.594Z,27.75
2022-11-19T09:15:15.141Z,27.94
2022-11-19T09:16:15.669Z,27.86
2022-11-19T09:17:16.237Z,28.55
2022-11-19T09:18:16.762Z,28.78
2022-11-19T09:19:17.293Z,28.47
2022-11-19T09:20:17.819Z,27.87
2022-11-19T09:21:18.339Z,28.28
2022-11-19T09:22:18.904Z,28.39
2022-11-19T09:23:19.431Z,28.18
2022-11-19T09:24:20.195Z,27.86
2022-11-19T09:25:20.816Z,27.35
2022-11-19T09:26:21.381Z,26.64
2022-11-19T09:27:21.925Z,27.13
2022-11-19T09:28:22.456Z,26.73
2022-11-19T09:29:22.994Z,26.25
2022-11-19T09:30:23.502Z,25.74
2022-11-19T09:31:24.057Z,25.55
2022-11-19T09:32:25.636Z,25.36
2022-11-19T09:33:25.307Z,25.95
2022-11-19T09:34:25.837Z,26.26
2022-11-19T09:35:26.369Z,26.07
2022-11-19T09:36:26.897Z,26.16
2022-11-19T09:37:27.483Z,26.29
2022-11-19T09:38:28.020Z,26.98
2022-11-19T09:39:28.585Z,27.29
2022-11-19T09:40:29.150Z,26.81
2022-11-19T09:41:29.687Z,27.00
2022-11-19T09:42:30.282Z,26.79
2022-11-19T09:43:30.839Z,26.60
2022-11-19T09:44:31.357Z,26.22
2022-11-19T09:45:31.881Z,26.60
2022-11-19T09:46:32.409Z,26.38
2022-11-19T09:47:33.033Z,25.87
2022-11-19T09:48:35.191Z,25.96
2022-11-19T09:49:34.202Z,24.71
2022-11-19T09:50:34.725Z,24.80
2022-11-19T09:51:35.269Z,24.91
2022-11-19T09:52:35.846Z,25.31
2022-11-19T09:53:36.375Z,24.80
2022-11-19T09:54:36.894Z,24.79
2022-11-19T09:55:37.435Z,24.87
2022-11-19T09:56:37.964Z,24.97
2022-11-19T09:57:38.532Z,25.26
2022-11-19T09:58:39.059Z,24.48
2022-11-19T09:59:39.586Z,23.98
2022-11-19T10:00:40.109Z,23.96
2022-11-19T10:01:40.627Z,23.56
2022-11-19T10:02:41.320Z,23.07
2022-11-19T10:03:41.890Z,22.59
2022-11-19T10:04:42.409Z,22.78
2022-11-19T10:05:42.934Z,22.77
2022-11-19T10:06:43.446Z,22.76
2022-11-19T10:07:44.608Z,22.58
2022-11-19T10:08:44.629Z,23.08
2022-11-19T10:09:45.167Z,22.98
2022-11-19T10:10:45.171Z,22.47
2022-11-19T10:11:46.715Z,21.97
2022-11-19T10:12:47.274Z,21.39
2022-11-19T10:13:47.787Z,20.90
2022-11-19T10:14:48.308Z,20.50
2022-11-19T10:15:48.850Z,20.78
2022-11-19T10:16:49.371Z,20.67
2022-11-19T10:17:49.923Z,20.17
2022-11-19T10:18:50.487Z,20.75
2022-11-19T10:19:51.062Z,20.86
2022-11-19T10:20:51.576Z,22.20
2022-11-19T10:21:52.091Z,23.06
2022-11-19T10:22:57.133Z,23.52
2022-11-19T10:23:53.472Z,24.41
2022-11-19T10:24:54.002Z,24.60
2022-11-19T10:25:54.552Z,24.79
2022-11-19T10:26:55.068Z,24.87
2022-11-19T10:27:55.641Z,25.17
2022-11-19T10:28:56.169Z,25.68
2022-11-19T10:29:56.689Z,25.98
2022-11-19T10:30:57.224Z,26.27
2022-11-19T10:31:57.762Z,26.36
2022-11-19T10:32:58.343Z,26.27
2022-11-19T10:33:58.904Z,26.07
2022-11-19T10:34:59.425Z,26.35
2022-11-19T10:35:59.947Z,27.04
2022-11-19T10:37:00.477Z,27.42
2022-11-19T10:38:01.080Z,28.38
2022-11-19T10:39:01.601Z,28.97
2022-11-19T10:40:02.125Z,29.28
2022-11-19T10:41:02.673Z,28.88
2022-11-19T10:42:03.211Z,29.07
2022-11-19T10:43:03.779Z,29.58
2022-11-19T10:44:04.307Z,30.29
2022-11-19T10:45:04.836Z,30.18
2022-11-19T10:46:05.368Z,30.00
2022-11-19T10:47:05.894Z,30.82
2022-11-19T10:48:09.436Z,31.83
2022-11-19T10:49:07.194Z,32.62
2022-11-19T10:50:11.242Z,32.42
2022-11-19T10:51:08.576Z,33.12
2022-11-19T10:52:09.110Z,33.41
2022-11-19T10:53:09.670Z,33.72
2022-11-19T10:54:10.206Z,33.31
2022-11-19T10:55:10.724Z,32.70
2022-11-19T10:56:11.266Z,32.21
2022-11-19T10:57:11.817Z,31.60
2022-11-19T10:58:12.373Z,30.70
2022-11-19T10:59:12.891Z,30.10
2022-11-19T11:00:13.424Z,29.49
2022-11-19T11:01:13.994Z,28.99
2022-11-19T11:02:14.540Z,28.51
2022-11-19T11:03:15.134Z,28.55
2022-11-19T11:04:15.653Z,29.05
2022-11-19T11:05:16.181Z,29.36
2022-11-19T11:06:16.711Z,30.76
2022-11-19T11:07:17.259Z,31.28
2022-11-19T11:08:18.063Z,31.87
2022-11-19T11:09:19.018Z,31.89
2022-11-19T11:10:19.373Z,31.50
2022-11-19T11:11:19.941Z,32.39
2022-11-19T11:12:20.464Z,32.49
2022-11-19T11:13:21.035Z,32.60
2022-11-19T11:14:21.593Z,32.91
2022-11-19T11:15:22.115Z,32.89
2022-11-19T11:16:22.716Z,32.68
2022-11-19T11:17:23.255Z,32.28
2022-11-19T11:18:23.821Z,32.47
2022-11-19T11:19:24.366Z,32.78
2022-11-19T11:20:24.894Z,32.28
2022-11-19T11:21:25.415Z,31.99
2022-11-19T11:22:25.934Z,32.49
2022-11-19T11:23:26.485Z,32.10
2022-11-19T11:24:27.003Z,32.62
2022-11-19T11:25:27.560Z,32.52
2022-11-19T11:26:28.106Z,33.02
2022-11-19T11:27:28.636Z,33.20
2022-11-19T11:28:29.209Z,32.79
2022-11-19T11:29:29.725Z,31.89
2022-11-19T11:30:30.255Z,30.78
2022-11-19T11:31:30.776Z,30.60
2022-11-19T11:32:31.288Z,30.49
2022-11-19T11:33:31.852Z,29.60
2022-11-19T11:34:32.381Z,29.41
2022-11-19T11:35:32.911Z,28.99
2022-11-19T11:36:33.430Z,29.01
2022-11-19T11:37:33.950Z,29.20
2022-11-19T11:38:34.550Z,29.30
2022-11-19T11:39:35.078Z,28.83
2022-11-19T11:40:35.614Z,29.12
2022-11-19T11:42:36.997Z,30.49
2022-11-19T11:43:37.632Z,30.47
2022-11-19T11:44:38.165Z,29.86
2022-11-19T11:45:38.690Z,29.09
2022-11-19T11:46:39.215Z,28.97
2022-11-19T11:47:39.733Z,28.67
2022-11-19T11:48:40.433Z,28.87
2022-11-19T11:49:40.954Z,28.76
2022-11-19T11:50:41.486Z,28.97
2022-11-19T11:51:42.010Z,29.86
2022-11-19T11:52:42.544Z,30.05
2022-11-19T11:53:43.116Z,30.55
2022-11-19T11:54:43.652Z,32.29
2022-11-19T11:55:44.197Z,32.89
2022-11-19T11:56:44.766Z,32.39
2022-11-19T11:57:45.294Z,31.99
2022-11-19T11:58:45.872Z,31.37
2022-11-19T11:59:46.404Z,31.78
2022-11-19T12:00:46.916Z,31.67
2022-11-19T12:01:47.430Z,31.56
2022-11-19T12:02:48.011Z,31.65
2022-11-19T12:03:54.906Z,31.97
2022-11-19T12:04:49.475Z,34.70
2022-11-19T12:05:50.011Z,33.69
2022-11-19T12:06:50.535Z,33.39
2022-11-19T12:07:51.068Z,32.67
2022-11-19T12:08:52.010Z,31.86
2022-11-19T12:09:52.541Z,31.46
2022-11-19T12:10:53.070Z,31.46
2022-11-19T12:11:53.644Z,30.96
2022-11-19T12:12:54.168Z,30.75
2022-11-19T12:13:54.765Z,30.05
2022-11-19T12:14:55.282Z,30.25
2022-11-19T12:15:55.825Z,30.75
2022-11-19T12:16:56.369Z,31.04
2022-11-19T12:17:56.900Z,31.44
2022-11-19T12:18:57.464Z,32.14
2022-11-19T12:19:57.996Z,31.93
2022-11-19T12:20:58.524Z,31.63
2022-11-19T12:21:59.047Z,31.52
2022-11-19T12:22:59.560Z,32.02
2022-11-19T12:24:00.116Z,32.12
2022-11-19T12:25:00.654Z,32.33
2022-11-19T12:26:01.169Z,32.31
2022-11-19T12:27:01.712Z,32.81
2022-11-19T12:28:02.235Z,33.01
2022-11-19T12:29:02.786Z,33.41
2022-11-19T12:30:03.321Z,32.62
2022-11-19T12:31:03.844Z,32.12
2022-11-19T12:32:04.359Z,31.52
2022-11-19T12:33:04.876Z,31.52
2022-11-19T12:34:05.457Z,31.04
2022-11-19T12:35:05.978Z,31.04
2022-11-19T12:36:06.501Z,30.65
2022-11-19T12:37:07.017Z,30.75
2022-11-19T12:38:07.556Z,30.46
2022-11-19T12:39:08.164Z,30.36
2022-11-19T12:40:08.694Z,30.07
2022-11-19T12:41:09.222Z,30.15
2022-11-19T12:42:09.774Z,30.05
2022-11-19T12:43:10.299Z,29.88
2022-11-19T12:44:10.848Z,29.78
2022-11-19T12:45:11.358Z,29.78
2022-11-19T12:46:11.896Z,29.78
2022-11-19T12:47:12.426Z,29.59
2022-11-19T12:48:12.943Z,29.59
2022-11-19T12:49:13.540Z,30.28
2022-11-19T12:50:14.068Z,30.58
2022-11-19T12:51:14.595Z,30.99
2022-11-19T12:52:15.113Z,31.39
2022-11-19T12:53:15.651Z,31.57
2022-11-19T12:54:19.230Z,31.09
2022-11-19T12:55:17.264Z,30.99
2022-11-19T12:56:17.896Z,30.69
2022-11-19T12:57:18.457Z,30.69
2022-11-19T12:58:18.997Z,30.51
2022-11-19T12:59:19.843Z,30.51
2022-11-19T13:00:20.509Z,30.39
2022-11-19T13:01:21.160Z,30.08
2022-11-19T13:02:21.732Z,29.99